Time;durP1;ratioP1;P1;durP2;ratioP2;P2;SDS_P1;SDS_P2;PMS_P1;PMS_P2;Temp;Humidity;BMP_temperature;BMP_pressure;BME280_temperature;BME280_humidity;BME280_pressure;Samples;Min_cycle;Max_cycle;Signal;HPM_P1;HPM_P2
2023/10/24 00:03:35;;;;;;;5.05;2.75;;;12.20;99.90;;;;;;7353198;32;20117;-56
2023/10/24 00:07:37;;;;;;;4.57;2.20;;;12.10;99.90;;;;;;7365094;32;20122;-56
2023/10/24 00:11:38;;;;;;;5.40;2.40;;;12.20;99.90;;;;;;7360193;32;20478;-56
2023/10/24 00:15:40;;;;;;;5.05;2.92;;;12.30;99.90;;;;;;7355004;32;20564;-56
2023/10/24 00:19:42;;;;;;;4.22;2.60;;;12.30;99.90;;;;;;7345658;32;20106;-57
2023/10/24 00:23:44;;;;;;;6.57;2.70;;;12.30;99.90;;;;;;7355445;32;20651;-56
2023/10/24 00:27:46;;;;;;;8.80;2.45;;;12.30;99.90;;;;;;7356949;32;20217;-56
2023/10/24 00:31:47;;;;;;;6.55;2.85;;;12.30;99.90;;;;;;7352294;32;20240;-56
2023/10/24 00:35:49;;;;;;;4.07;2.47;;;12.40;99.90;;;;;;7349744;32;20242;-55
2023/10/24 00:39:51;;;;;;;5.05;2.50;;;12.30;99.90;;;;;;7353783;32;20267;-56
2023/10/24 00:43:53;;;;;;;5.28;2.50;;;12.40;99.90;;;;;;7352355;32;20175;-56
2023/10/24 00:47:54;;;;;;;6.72;2.62;;;12.40;99.90;;;;;;7350739;32;20206;-56
2023/10/24 00:51:57;;;;;;;3.92;2.00;;;12.40;99.90;;;;;;7355676;32;20116;-56
2023/10/24 00:55:59;;;;;;;8.68;2.80;;;12.40;99.90;;;;;;7352671;32;20394;-55
2023/10/24 01:00:01;;;;;;;4.20;2.50;;;12.40;99.90;;;;;;7353337;32;20116;-56
2023/10/24 01:04:05;;;;;;;8.38;2.97;;;12.40;99.90;;;;;;7346273;32;20131;-56
2023/10/24 01:08:07;;;;;;;6.85;2.60;;;12.40;99.90;;;;;;7349191;32;20122;-57
2023/10/24 01:12:08;;;;;;;5.30;2.15;;;12.40;99.90;;;;;;7350586;32;20182;-56
2023/10/24 01:16:10;;;;;;;5.07;2.55;;;12.40;99.90;;;;;;7348199;32;20111;-56
2023/10/24 01:20:12;;;;;;;4.70;2.45;;;12.50;99.90;;;;;;7347585;32;20205;-56
2023/10/24 01:24:15;;;;;;;6.45;2.75;;;12.50;99.90;;;;;;7357960;32;20945;-56
2023/10/24 01:28:17;;;;;;;3.85;1.95;;;12.50;99.90;;;;;;7359988;32;20580;-57
2023/10/24 01:32:29;;;;;;;5.03;2.67;;;12.50;99.90;;;;;;7349964;32;20445;-57
2023/10/24 01:36:31;;;;;;;6.35;2.40;;;12.50;99.90;;;;;;7346237;32;20141;-55
2023/10/24 01:40:33;;;;;;;6.03;2.17;;;12.60;99.90;;;;;;7350505;32;20118;-56
2023/10/24 01:44:34;;;;;;;4.85;1.90;;;12.60;99.90;;;;;;7346354;32;20204;-57
2023/10/24 01:48:36;;;;;;;5.32;1.60;;;12.50;99.90;;;;;;7359712;32;20174;-55
2023/10/24 01:52:38;;;;;;;5.35;1.85;;;12.60;99.90;;;;;;7363951;32;20739;-56
2023/10/24 01:56:40;;;;;;;5.28;1.83;;;12.70;99.90;;;;;;7353883;32;20251;-57
2023/10/24 02:00:42;;;;;;;3.28;1.90;;;12.70;99.90;;;;;;7360451;32;20115;-56
2023/10/24 02:04:43;;;;;;;4.20;1.70;;;12.70;99.90;;;;;;7353342;32;20219;-56
2023/10/24 02:08:45;;;;;;;3.65;2.00;;;12.60;99.90;;;;;;7354947;32;20279;-56
2023/10/24 02:12:47;;;;;;;3.25;1.95;;;12.60;99.90;;;;;;7353235;32;20177;-57
2023/10/24 02:16:49;;;;;;;7.45;1.90;;;12.60;99.90;;;;;;7358248;32;20610;-55
2023/10/24 02:20:51;;;;;;;6.07;2.45;;;12.70;99.90;;;;;;7355019;32;20191;-55
2023/10/24 02:24:53;;;;;;;7.68;2.10;;;12.60;99.90;;;;;;7356391;32;20175;-57
2023/10/24 02:28:54;;;;;;;4.32;2.15;;;12.60;99.90;;;;;;7354602;32;20330;-56
2023/10/24 02:33:00;;;;;;;4.40;2.33;;;12.60;99.90;;;;;;7351428;32;20333;-56
2023/10/24 02:37:02;;;;;;;4.30;1.90;;;12.60;99.90;;;;;;7353437;32;20130;-56
2023/10/24 02:41:04;;;;;;;6.75;2.28;;;12.60;99.90;;;;;;7346747;32;20300;-57
2023/10/24 02:45:06;;;;;;;5.32;1.98;;;12.50;99.90;;;;;;7349164;32;20230;-57
2023/10/24 02:49:08;;;;;;;6.70;2.42;;;12.60;99.90;;;;;;7360659;32;20186;-57
2023/10/24 02:53:09;;;;;;;7.10;2.42;;;12.60;99.90;;;;;;7352284;32;20162;-58
2023/10/24 02:57:11;;;;;;;7.50;2.35;;;12.70;99.90;;;;;;7344891;32;20269;-56
2023/10/24 03:01:13;;;;;;;5.10;2.08;;;12.60;99.90;;;;;;7357532;32;20117;-56
2023/10/24 03:05:15;;;;;;;7.78;2.05;;;12.60;99.90;;;;;;7346238;32;20225;-57
2023/10/24 03:09:17;;;;;;;5.22;1.87;;;12.50;99.90;;;;;;7359501;32;20106;-57
2023/10/24 03:13:18;;;;;;;6.35;2.03;;;12.60;99.90;;;;;;7349577;32;20175;-58
2023/10/24 03:17:20;;;;;;;3.10;1.83;;;12.50;99.90;;;;;;7350327;32;20498;-57
2023/10/24 03:21:22;;;;;;;5.43;1.90;;;12.50;99.90;;;;;;7354213;32;20104;-57
2023/10/24 03:25:26;;;;;;;6.65;1.80;;;12.50;99.90;;;;;;7360446;32;20108;-56
2023/10/24 03:29:28;;;;;;;6.30;1.60;;;12.50;99.90;;;;;;7348864;32;20651;-57
2023/10/24 03:33:33;;;;;;;4.30;1.80;;;12.40;99.90;;;;;;7354596;32;20133;-58
2023/10/24 03:37:35;;;;;;;3.25;1.40;;;12.40;99.90;;;;;;7357484;32;20183;-56
2023/10/24 03:41:37;;;;;;;3.30;1.52;;;12.50;99.90;;;;;;7353339;32;20095;-57
2023/10/24 03:45:39;;;;;;;3.90;1.60;;;12.50;99.90;;;;;;7352738;32;20238;-57
2023/10/24 03:49:40;;;;;;;4.35;1.35;;;12.50;99.90;;;;;;7353986;32;20570;-57
2023/10/24 03:53:42;;;;;;;3.00;1.23;;;12.50;99.90;;;;;;7355243;32;20103;-56
2023/10/24 03:57:44;;;;;;;4.72;1.45;;;12.40;99.90;;;;;;7358181;32;20131;-56
2023/10/24 04:01:46;;;;;;;3.08;1.20;;;12.40;99.90;;;;;;7349842;32;20214;-57
2023/10/24 04:05:47;;;;;;;2.05;1.10;;;12.40;99.90;;;;;;7347935;32;20112;-57
2023/10/24 04:09:49;;;;;;;1.35;0.60;;;12.40;99.90;;;;;;7344853;32;20254;-56
2023/10/24 04:13:51;;;;;;;1.42;0.68;;;12.40;99.90;;;;;;7350525;32;20194;-57
2023/10/24 04:17:53;;;;;;;1.37;0.52;;;12.30;99.90;;;;;;7349266;32;20178;-56
2023/10/24 04:21:54;;;;;;;1.58;0.52;;;12.30;99.90;;;;;;7353869;32;20102;-56
2023/10/24 04:25:56;;;;;;;1.27;0.75;;;12.30;99.90;;;;;;7352171;32;20308;-56
2023/10/24 04:29:58;;;;;;;5.05;0.80;;;12.30;99.90;;;;;;7350900;32;20133;-56
2023/10/24 04:34:02;;;;;;;2.90;1.10;;;12.20;99.90;;;;;;7347572;32;20115;-56
2023/10/24 04:38:04;;;;;;;3.20;1.20;;;12.30;99.90;;;;;;7347468;32;20248;-56
2023/10/24 04:42:06;;;;;;;2.70;1.42;;;12.40;99.90;;;;;;7354746;32;20194;-56
2023/10/24 04:46:07;;;;;;;2.58;1.73;;;12.30;99.90;;;;;;7345087;32;20173;-57
2023/10/24 04:50:10;;;;;;;1.73;1.08;;;12.30;99.90;;;;;;7343894;32;20112;-58
2023/10/24 04:54:11;;;;;;;2.45;1.20;;;12.20;99.90;;;;;;7351791;32;20251;-56
2023/10/24 04:58:13;;;;;;;2.95;1.65;;;12.30;99.90;;;;;;7352074;32;20106;-57
2023/10/24 05:02:15;;;;;;;1.77;0.85;;;12.30;99.90;;;;;;7351713;32;22481;-57
2023/10/24 05:06:17;;;;;;;3.08;0.90;;;12.20;99.90;;;;;;7358172;32;20132;-57
2023/10/24 05:10:20;;;;;;;2.78;1.08;;;12.10;99.90;;;;;;7354207;32;20190;-57
2023/10/24 05:14:22;;;;;;;2.65;1.10;;;12.10;99.90;;;;;;7347755;32;20820;-57
2023/10/24 05:18:24;;;;;;;1.02;0.62;;;12.20;99.90;;;;;;7352313;32;20166;-57
2023/10/24 05:22:26;;;;;;;2.55;0.90;;;12.20;99.90;;;;;;7350707;32;20292;-56
2023/10/24 05:26:27;;;;;;;1.73;0.68;;;12.20;99.90;;;;;;7357203;32;20119;-56
2023/10/24 05:30:29;;;;;;;2.70;0.88;;;12.20;99.90;;;;;;7351300;32;20153;-57
2023/10/24 05:34:31;;;;;;;1.17;0.80;;;12.20;99.90;;;;;;7352953;32;20119;-56
2023/10/24 05:38:33;;;;;;;1.85;0.80;;;12.20;99.90;;;;;;7361639;32;20465;-56
2023/10/24 05:42:36;;;;;;;2.70;0.90;;;12.20;99.90;;;;;;7349700;32;20107;-57
2023/10/24 05:46:38;;;;;;;1.17;0.77;;;12.20;99.90;;;;;;7351617;32;20202;-57
2023/10/24 05:50:40;;;;;;;3.15;0.82;;;12.30;99.90;;;;;;7358934;32;20107;-57
2023/10/24 05:54:42;;;;;;;1.73;0.73;;;12.20;99.90;;;;;;7351616;32;20681;-56
2023/10/24 05:58:45;;;;;;;1.58;1.00;;;12.20;99.90;;;;;;7363592;32;20163;-55
2023/10/24 06:02:46;;;;;;;2.03;0.90;;;12.20;99.90;;;;;;7351216;32;20103;-56
2023/10/24 06:06:48;;;;;;;2.20;1.70;;;12.10;99.90;;;;;;7353740;32;20940;-56
2023/10/24 06:11:01;;;;;;;1.15;0.95;;;12.10;99.90;;;;;;7354281;32;20309;-55
2023/10/24 06:15:07;;;;;;;1.73;0.90;;;12.20;99.90;;;;;;7349159;32;20238;-56
2023/10/24 06:19:08;;;;;;;2.05;0.75;;;12.20;99.90;;;;;;7352948;32;20469;-56
2023/10/24 06:23:11;;;;;;;3.05;0.80;;;12.20;99.90;;;;;;7357168;32;20297;-57
2023/10/24 06:27:13;;;;;;;3.40;0.90;;;12.10;99.90;;;;;;7344429;32;20521;-57
2023/10/24 06:31:15;;;;;;;3.30;0.80;;;12.20;99.90;;;;;;7339720;32;20174;-56
2023/10/24 06:35:17;;;;;;;3.55;1.10;;;12.10;99.90;;;;;;7342780;32;20111;-57
2023/10/24 06:39:19;;;;;;;2.67;1.00;;;12.20;99.90;;;;;;7353855;32;20605;-57
2023/10/24 06:43:22;;;;;;;1.52;0.70;;;12.20;99.90;;;;;;7349953;32;20138;-56
2023/10/24 06:47:24;;;;;;;2.58;0.80;;;12.20;99.90;;;;;;7354496;32;20111;-56
2023/10/24 06:51:25;;;;;;;2.30;0.80;;;12.20;99.90;;;;;;7338214;32;20132;-57
2023/10/24 06:55:27;;;;;;;2.12;0.70;;;12.30;99.90;;;;;;7349747;32;20144;-57
2023/10/24 06:59:29;;;;;;;1.65;0.70;;;12.30;99.90;;;;;;7346032;32;20456;-57
2023/10/24 07:03:31;;;;;;;1.62;0.73;;;12.20;99.90;;;;;;7352142;32;20170;-56
2023/10/24 07:07:33;;;;;;;1.85;0.57;;;12.30;99.90;;;;;;7357077;32;20127;-57
2023/10/24 07:11:35;;;;;;;1.45;0.75;;;12.30;99.90;;;;;;7352384;32;20169;-58
2023/10/24 07:15:37;;;;;;;2.95;0.75;;;12.30;99.90;;;;;;7356665;32;20221;-57
2023/10/24 07:19:38;;;;;;;1.45;0.68;;;12.40;99.90;;;;;;7359313;32;20115;-57
2023/10/24 07:23:40;;;;;;;1.52;0.77;;;12.30;99.90;;;;;;7349932;32;20130;-57
2023/10/24 07:27:42;;;;;;;3.10;0.80;;;12.50;99.90;;;;;;7341388;32;20154;-57
2023/10/24 07:31:44;;;;;;;3.90;0.62;;;12.50;99.90;;;;;;7346412;32;20103;-57
2023/10/24 07:35:50;;;;;;;2.47;0.70;;;12.40;99.90;;;;;;7344330;32;20242;-55
2023/10/24 07:39:53;;;;;;;1.33;0.55;;;12.40;99.90;;;;;;7351986;32;20266;-56
2023/10/24 07:43:55;;;;;;;3.53;0.65;;;12.40;99.90;;;;;;7351763;32;20151;-56
2023/10/24 07:47:59;;;;;;;3.08;0.80;;;12.40;99.90;;;;;;7346398;32;20249;-58
2023/10/24 07:52:01;;;;;;;4.47;0.80;;;12.40;99.90;;;;;;7351966;32;20126;-56
2023/10/24 07:56:05;;;;;;;1.70;0.70;;;12.30;99.90;;;;;;7350390;32;20110;-56
2023/10/24 08:00:08;;;;;;;2.37;0.50;;;12.40;99.90;;;;;;7352158;32;20232;-57
2023/10/24 08:04:10;;;;;;;1.00;0.62;;;12.40;99.90;;;;;;7344051;32;20174;-57
2023/10/24 08:08:12;;;;;;;1.15;0.60;;;12.40;99.90;;;;;;7352681;32;20107;-56
2023/10/24 08:12:13;;;;;;;1.62;0.65;;;12.40;99.90;;;;;;7348680;32;20157;-56
2023/10/24 08:16:17;;;;;;;3.97;0.65;;;12.40;99.90;;;;;;7354643;32;20472;-56
2023/10/24 08:20:19;;;;;;;3.62;0.80;;;12.50;99.90;;;;;;7344434;32;20108;-56
2023/10/24 08:24:21;;;;;;;1.65;0.60;;;12.50;99.90;;;;;;7351711;32;20861;-56
2023/10/24 08:28:23;;;;;;;3.00;0.77;;;12.50;99.90;;;;;;7333924;32;20229;-56
2023/10/24 08:32:25;;;;;;;2.25;0.88;;;12.50;99.90;;;;;;7346248;32;20111;-56
2023/10/24 08:36:27;;;;;;;2.37;1.20;;;12.50;99.90;;;;;;7345905;32;20963;-56
2023/10/24 08:40:29;;;;;;;0.98;0.55;;;12.60;99.90;;;;;;7352702;32;20125;-58
2023/10/24 08:44:33;;;;;;;1.15;0.57;;;12.60;99.90;;;;;;7354954;32;20237;-56
2023/10/24 08:48:35;;;;;;;2.15;0.70;;;12.70;99.90;;;;;;7351215;32;20134;-57
2023/10/24 08:52:36;;;;;;;1.37;0.73;;;12.60;99.90;;;;;;7347782;32;20270;-56
2023/10/24 08:56:40;;;;;;;3.45;0.70;;;12.70;99.90;;;;;;7347164;32;20131;-57
2023/10/24 09:00:43;;;;;;;2.22;0.80;;;12.80;99.90;;;;;;7354195;32;20208;-57
2023/10/24 09:04:45;;;;;;;1.37;0.55;;;12.80;99.90;;;;;;7340436;32;20141;-57
2023/10/24 09:08:48;;;;;;;1.48;0.50;;;12.90;99.90;;;;;;7349509;32;20306;-57
2023/10/24 09:12:56;;;;;;;3.45;0.70;;;12.90;99.90;;;;;;7344767;32;20103;-57
2023/10/24 09:17:00;;;;;;;1.95;0.68;;;13.10;99.90;;;;;;7343788;32;20272;-57
2023/10/24 09:21:04;;;;;;;2.55;0.90;;;13.20;99.90;;;;;;7342147;32;20727;-55
2023/10/24 09:25:08;;;;;;;3.22;0.80;;;13.20;99.90;;;;;;7336235;32;20524;-55
2023/10/24 09:29:10;;;;;;;2.78;0.70;;;13.30;99.90;;;;;;7350492;32;20118;-55
2023/10/24 09:33:12;;;;;;;0.90;0.50;;;13.50;99.90;;;;;;7352428;32;20302;-55
2023/10/24 09:37:15;;;;;;;2.05;0.65;;;13.50;99.90;;;;;;7330472;32;20123;-55
2023/10/24 09:41:18;;;;;;;1.58;0.70;;;13.50;99.90;;;;;;7344214;32;20195;-55
2023/10/24 09:45:22;;;;;;;3.70;0.90;;;13.50;99.90;;;;;;7332838;32;20743;-58
2023/10/24 09:49:25;;;;;;;2.08;0.82;;;13.50;99.90;;;;;;7350542;32;20107;-55
2023/10/24 09:53:27;;;;;;;4.62;0.93;;;13.50;99.90;;;;;;7347813;32;20202;-56
2023/10/24 09:57:30;;;;;;;1.73;0.88;;;13.60;99.90;;;;;;7329883;32;20476;-56
2023/10/24 10:01:32;;;;;;;1.70;0.70;;;13.80;99.90;;;;;;7341499;32;20134;-56
2023/10/24 10:05:35;;;;;;;1.85;0.80;;;13.80;99.90;;;;;;7335821;32;20151;-54
2023/10/24 10:09:42;;;;;;;2.87;0.85;;;13.90;99.90;;;;;;7355960;32;20555;-56
2023/10/24 10:13:53;;;;;;;3.45;0.95;;;14.00;99.90;;;;;;7337562;32;20222;-56
2023/10/24 10:18:22;;;;;;;1.37;0.82;;;14.10;99.90;;;;;;7347925;32;20114;-56
2023/10/24 10:22:51;;;;;;;1.62;0.90;;;14.20;99.90;;;;;;7351269;32;20116;-56
2023/10/24 10:27:17;;;;;;;1.92;0.80;;;14.50;99.90;;;;;;7352289;32;20159;-57
2023/10/24 10:31:29;;;;;;;1.20;0.70;;;14.50;99.90;;;;;;7353026;32;20133;-56
2023/10/24 10:36:05;;;;;;;3.08;1.00;;;14.60;99.90;;;;;;7349030;32;20139;-56
2023/10/24 10:40:19;;;;;;;2.33;0.80;;;14.80;99.90;;;;;;7343588;32;20196;-57
2023/10/24 10:44:36;;;;;;;2.20;0.70;;;14.90;99.90;;;;;;7357722;32;20191;-56
2023/10/24 10:48:43;;;;;;;1.45;0.80;;;14.90;99.90;;;;;;7347058;32;20630;-57
2023/10/24 10:53:08;;;;;;;2.87;1.02;;;14.60;99.90;;;;;;7351336;32;20111;-57
2023/10/24 10:57:16;;;;;;;2.78;1.02;;;14.50;99.90;;;;;;7356254;32;20146;-57
2023/10/24 11:01:40;;;;;;;4.15;0.85;;;14.40;99.90;;;;;;7351889;32;20731;-57
2023/10/24 11:05:49;;;;;;;2.78;1.00;;;14.40;99.90;;;;;;7353149;32;20161;-56
2023/10/24 11:09:51;;;;;;;1.67;0.90;;;14.30;99.90;;;;;;7348198;32;20139;-56
2023/10/24 11:14:19;;;;;;;1.58;0.80;;;14.30;99.90;;;;;;7346482;32;20661;-55
2023/10/24 11:18:21;;;;;;;3.87;0.93;;;14.30;99.90;;;;;;7345522;32;20294;-57
2023/10/24 11:22:23;;;;;;;1.87;1.05;;;14.20;99.90;;;;;;7344578;32;20103;-56
2023/10/24 11:26:26;;;;;;;3.22;0.90;;;14.10;99.90;;;;;;7345974;32;20111;-56
2023/10/24 11:30:28;;;;;;;1.62;0.90;;;14.10;99.90;;;;;;7342920;32;20314;-56
2023/10/24 11:34:29;;;;;;;2.72;0.82;;;14.00;99.90;;;;;;7346182;32;20577;-57
2023/10/24 11:38:31;;;;;;;4.32;0.93;;;14.00;99.90;;;;;;7347778;32;20174;-56
2023/10/24 11:42:33;;;;;;;3.33;0.80;;;14.00;99.90;;;;;;7350426;32;20849;-56
2023/10/24 11:46:39;;;;;;;1.35;0.70;;;13.80;99.90;;;;;;7344693;32;20519;-54
2023/10/24 11:50:47;;;;;;;2.05;0.75;;;13.70;99.90;;;;;;7344301;32;20225;-55
2023/10/24 11:54:52;;;;;;;3.70;1.25;;;13.80;99.90;;;;;;7344436;32;20221;-56
2023/10/24 11:58:54;;;;;;;1.12;0.65;;;13.70;99.90;;;;;;7342887;32;20126;-54
2023/10/24 12:03:04;;;;;;;1.40;1.08;;;13.60;99.90;;;;;;7343895;32;20263;-56
2023/10/24 12:07:09;;;;;;;2.58;1.02;;;13.50;99.90;;;;;;7343411;32;20131;-56
2023/10/24 12:11:11;;;;;;;4.00;1.20;;;13.50;99.90;;;;;;7339370;32;20129;-57
2023/10/24 12:15:15;;;;;;;4.72;1.55;;;13.40;99.90;;;;;;7338424;32;20104;-56
2023/10/24 12:19:17;;;;;;;2.20;1.25;;;13.40;99.90;;;;;;7348948;32;20115;-56
2023/10/24 12:23:21;;;;;;;2.00;1.10;;;13.20;99.90;;;;;;7347112;32;20112;-56
2023/10/24 12:27:23;;;;;;;3.92;1.17;;;13.10;99.90;;;;;;7335813;32;20258;-54
2023/10/24 12:31:25;;;;;;;3.72;1.23;;;12.90;99.90;;;;;;7343483;32;20216;-55
2023/10/24 12:35:27;;;;;;;3.37;1.30;;;12.90;99.90;;;;;;7339901;32;20449;-55
2023/10/24 12:39:28;;;;;;;3.95;2.08;;;12.80;99.90;;;;;;7351014;32;20127;-56
2023/10/24 12:43:31;;;;;;;6.10;2.15;;;12.70;99.90;;;;;;7349229;32;20111;-56
2023/10/24 12:47:33;;;;;;;4.25;2.00;;;12.50;99.90;;;;;;7336095;32;20111;-56
2023/10/24 12:51:35;;;;;;;3.75;2.05;;;12.40;99.90;;;;;;7340196;32;20126;-55
2023/10/24 12:55:37;;;;;;;3.62;1.33;;;12.50;99.90;;;;;;7348613;32;20172;-57
2023/10/24 12:59:38;;;;;;;3.72;1.60;;;12.50;99.90;;;;;;7337171;32;20338;-58
2023/10/24 13:03:40;;;;;;;4.82;1.35;;;12.40;99.90;;;;;;7353813;32;20547;-57
2023/10/24 13:07:42;;;;;;;2.22;1.30;;;12.40;99.90;;;;;;7353122;32;20142;-57
2023/10/24 13:11:44;;;;;;;2.87;1.30;;;12.40;99.90;;;;;;7351722;32;20518;-64
2023/10/24 13:15:46;;;;;;;3.50;1.12;;;12.30;99.90;;;;;;7350069;32;20122;-56
2023/10/24 13:19:48;;;;;;;2.85;1.08;;;12.40;99.90;;;;;;7358977;32;20103;-58
2023/10/24 13:23:50;;;;;;;3.45;1.17;;;12.30;99.90;;;;;;7354021;32;20759;-57
2023/10/24 13:27:51;;;;;;;2.05;1.12;;;12.30;99.90;;;;;;7349803;32;20131;-57
2023/10/24 13:31:55;;;;;;;1.70;0.80;;;12.30;99.90;;;;;;7346457;32;20724;-59
2023/10/24 13:35:57;;;;;;;2.65;1.40;;;12.20;99.90;;;;;;7346441;32;20111;-57
2023/10/24 13:40:02;;;;;;;2.22;1.12;;;12.10;99.90;;;;;;7362181;32;20159;-56
2023/10/24 13:44:04;;;;;;;3.12;1.00;;;12.20;99.90;;;;;;7355273;32;20138;-57
2023/10/24 13:48:06;;;;;;;5.65;1.17;;;12.20;99.90;;;;;;7351510;32;20131;-58
2023/10/24 13:52:09;;;;;;;2.28;0.93;;;12.60;99.90;;;;;;7356530;32;20236;-58
2023/10/24 13:56:11;;;;;;;1.33;0.90;;;12.90;99.90;;;;;;7348148;32;20138;-56
2023/10/24 14:00:13;;;;;;;2.47;1.00;;;13.00;99.90;;;;;;7347458;32;20123;-58
2023/10/24 14:04:15;;;;;;;1.77;1.30;;;12.90;99.90;;;;;;7337330;32;21151;-57
2023/10/24 14:08:17;;;;;;;3.08;0.85;;;12.70;99.90;;;;;;7351250;32;20542;-58
2023/10/24 14:12:18;;;;;;;3.55;1.40;;;12.80;99.90;;;;;;7349523;32;20205;-63
2023/10/24 14:16:20;;;;;;;4.12;0.95;;;12.80;99.90;;;;;;7344159;32;20213;-61
2023/10/24 14:20:22;;;;;;;2.67;1.00;;;12.70;99.90;;;;;;7346590;32;20111;-62
2023/10/24 14:24:24;;;;;;;1.37;0.80;;;12.80;99.90;;;;;;7348200;32;20128;-58
2023/10/24 14:28:26;;;;;;;4.50;0.88;;;12.80;99.90;;;;;;7355420;32;20599;-59
2023/10/24 14:32:27;;;;;;;1.60;0.82;;;12.80;99.90;;;;;;7338415;32;20444;-59
2023/10/24 14:36:29;;;;;;;1.73;0.70;;;12.80;99.90;;;;;;7354652;32;20195;-59
2023/10/24 14:40:32;;;;;;;1.40;0.70;;;12.60;99.90;;;;;;7346067;32;20103;-58
2023/10/24 14:44:34;;;;;;;1.98;0.90;;;12.60;99.90;;;;;;7344132;32;20133;-60
2023/10/24 14:48:36;;;;;;;1.48;0.88;;;12.70;99.90;;;;;;7346549;32;20281;-61
2023/10/24 14:52:40;;;;;;;1.37;0.60;;;12.70;99.90;;;;;;7348342;32;20116;-59
2023/10/24 14:56:42;;;;;;;2.00;0.90;;;12.70;99.90;;;;;;7338879;32;35681;-56
2023/10/24 15:00:45;;;;;;;1.50;0.57;;;12.60;99.90;;;;;;7348046;32;20115;-58
2023/10/24 15:04:47;;;;;;;1.30;0.82;;;12.60;99.90;;;;;;7347295;32;20130;-57
2023/10/24 15:08:51;;;;;;;1.92;0.80;;;12.50;99.90;;;;;;7338044;32;20195;-60
2023/10/24 15:12:53;;;;;;;1.40;0.70;;;12.40;99.90;;;;;;7346393;32;20137;-58
2023/10/24 15:16:55;;;;;;;2.35;0.95;;;12.30;99.90;;;;;;7337252;32;20603;-58
2023/10/24 15:21:00;;;;;;;1.80;0.90;;;12.20;99.90;;;;;;7344355;32;20192;-57
2023/10/24 15:25:02;;;;;;;2.53;0.70;;;12.20;99.90;;;;;;7349043;32;20135;-57
2023/10/24 15:29:04;;;;;;;1.55;1.00;;;12.00;99.90;;;;;;7351004;32;20159;-57
2023/10/24 15:33:06;;;;;;;2.33;0.70;;;11.90;99.90;;;;;;7338311;32;20744;-57
2023/10/24 15:37:08;;;;;;;2.03;0.80;;;11.80;99.90;;;;;;7345574;32;20637;-59
2023/10/24 15:41:10;;;;;;;1.15;0.75;;;11.80;99.90;;;;;;7347744;32;20172;-59
2023/10/24 15:45:12;;;;;;;1.55;0.70;;;11.70;99.90;;;;;;7350809;32;20817;-58
2023/10/24 15:49:14;;;;;;;1.48;0.80;;;11.60;99.90;;;;;;7340710;32;20111;-56
2023/10/24 15:53:15;;;;;;;3.10;1.10;;;11.50;99.90;;;;;;7350740;32;20176;-57
2023/10/24 15:57:17;;;;;;;2.00;1.05;;;11.50;99.90;;;;;;7335190;32;20820;-59
2023/10/24 16:01:21;;;;;;;1.50;1.00;;;11.50;99.90;;;;;;7344995;32;20225;-58
2023/10/24 16:05:22;;;;;;;1.42;0.90;;;11.40;99.90;;;;;;7340380;32;20124;-59
2023/10/24 16:09:24;;;;;;;2.22;1.08;;;11.20;99.90;;;;;;7337024;32;20245;-57
2023/10/24 16:13:26;;;;;;;2.30;1.10;;;11.20;99.90;;;;;;7341309;32;20213;-59
2023/10/24 16:17:28;;;;;;;2.97;1.20;;;11.10;99.90;;;;;;7350627;32;20129;-58
2023/10/24 16:21:35;;;;;;;5.53;1.60;;;11.00;99.90;;;;;;7343979;32;20186;-57
2023/10/24 16:25:36;;;;;;;1.25;0.98;;;11.00;99.90;;;;;;7346157;32;20174;-57
2023/10/24 16:29:38;;;;;;;3.70;1.30;;;10.90;99.90;;;;;;7344739;32;20177;-57
2023/10/24 16:33:40;;;;;;;2.55;1.65;;;10.80;99.90;;;;;;7341733;32;20206;-56
2023/10/24 16:37:41;;;;;;;2.30;1.30;;;10.70;99.90;;;;;;7342263;32;20133;-56
2023/10/24 16:41:43;;;;;;;3.60;1.45;;;10.60;99.90;;;;;;7350251;32;20138;-55
2023/10/24 16:45:50;;;;;;;1.98;1.20;;;10.60;99.90;;;;;;7340726;32;20139;-55
2023/10/24 16:49:52;;;;;;;;;;;10.50;99.90;;;;;;7347762;32;20547;-57
2023/10/24 16:53:54;;;;;;;2.15;1.30;;;10.40;99.90;;;;;;7344456;32;20438;-56
2023/10/24 16:57:55;;;;;;;4.62;1.75;;;10.40;99.90;;;;;;7347436;32;20139;-57
2023/10/24 17:01:57;;;;;;;2.20;1.00;;;10.40;99.90;;;;;;7340689;32;20112;-57
2023/10/24 17:06:00;;;;;;;1.95;1.23;;;10.30;99.90;;;;;;7336031;32;20794;-56
2023/10/24 17:10:02;;;;;;;2.28;1.23;;;10.20;99.90;;;;;;7348796;32;20242;-57
2023/10/24 17:14:04;;;;;;;2.40;1.52;;;10.20;99.90;;;;;;7345531;32;20117;-57
2023/10/24 17:18:06;;;;;;;1.87;1.42;;;10.20;99.90;;;;;;7358475;32;20166;-55
2023/10/24 17:22:08;;;;;;;1.80;1.30;;;10.10;99.90;;;;;;7345646;32;20108;-57
2023/10/24 17:26:10;;;;;;;2.75;1.45;;;10.10;99.90;;;;;;7343928;32;20297;-56
2023/10/24 17:30:12;;;;;;;2.58;1.45;;;10.10;99.90;;;;;;7342177;32;20234;-57
2023/10/24 17:34:14;;;;;;;3.92;2.30;;;10.10;99.90;;;;;;7345310;32;20111;-57
2023/10/24 17:38:16;;;;;;;4.05;2.60;;;10.20;99.90;;;;;;7348024;32;20628;-56
2023/10/24 17:42:18;;;;;;;3.83;2.40;;;10.10;99.90;;;;;;7347044;32;20126;-57
2023/10/24 17:46:21;;;;;;;3.87;3.17;;;10.10;99.90;;;;;;7339459;32;20256;-55
2023/10/24 17:50:25;;;;;;;3.83;2.95;;;10.20;99.90;;;;;;7342038;32;20274;-56
2023/10/24 17:54:27;;;;;;;6.00;4.12;;;10.20;99.90;;;;;;7345454;32;20478;-57
2023/10/24 17:58:29;;;;;;;7.28;4.35;;;10.30;99.90;;;;;;7347034;32;22155;-57
2023/10/24 18:02:31;;;;;;;8.18;4.78;;;10.40;99.90;;;;;;7348722;32;20157;-57
2023/10/24 18:06:33;;;;;;;6.07;4.75;;;10.30;99.90;;;;;;7350403;32;20122;-57
2023/10/24 18:10:35;;;;;;;8.35;5.07;;;10.20;99.90;;;;;;7348190;32;20148;-57
2023/10/24 18:14:38;;;;;;;6.18;4.85;;;10.30;99.90;;;;;;7343657;32;20932;-57
2023/10/24 18:18:40;;;;;;;6.20;4.10;;;10.10;99.90;;;;;;7353425;32;20297;-57
2023/10/24 18:22:42;;;;;;;5.47;4.40;;;10.10;99.90;;;;;;7341614;32;20137;-57
2023/10/24 18:26:43;;;;;;;7.82;4.30;;;10.10;99.90;;;;;;7350758;32;20114;-56
2023/10/24 18:30:45;;;;;;;8.88;4.28;;;10.20;99.90;;;;;;7343767;32;20108;-57
2023/10/24 18:34:48;;;;;;;5.22;4.15;;;10.30;99.90;;;;;;7338679;32;20115;-58
2023/10/24 18:38:51;;;;;;;7.28;4.32;;;10.40;99.90;;;;;;7345350;32;20265;-57
2023/10/24 18:42:55;;;;;;;6.47;3.80;;;10.40;99.90;;;;;;7344424;32;20176;-56
2023/10/24 18:46:57;;;;;;;5.87;3.90;;;10.50;99.90;;;;;;7354064;32;20127;-57
2023/10/24 18:51:07;;;;;;;4.37;3.95;;;10.50;99.90;;;;;;7349206;32;20115;-57
2023/10/24 18:55:10;;;;;;;4.07;3.35;;;10.60;99.90;;;;;;7356760;32;20210;-57
2023/10/24 18:59:12;;;;;;;4.80;3.50;;;10.70;99.90;;;;;;7349371;32;20125;-56
2023/10/24 19:03:15;;;;;;;5.55;3.40;;;10.70;99.90;;;;;;7355238;32;20226;-56
2023/10/24 19:07:29;;;;;;;4.25;3.08;;;10.70;99.90;;;;;;7357188;32;20129;-57
2023/10/24 19:11:31;;;;;;;3.92;3.47;;;10.80;99.90;;;;;;7350059;32;20127;-56
2023/10/24 19:15:33;;;;;;;4.87;3.37;;;10.80;99.90;;;;;;7348366;32;20132;-58
2023/10/24 19:19:36;;;;;;;6.62;3.87;;;10.80;99.90;;;;;;7352761;32;20186;-58
2023/10/24 19:23:38;;;;;;;4.00;3.08;;;10.90;99.90;;;;;;7355366;32;20636;-56
2023/10/24 19:27:40;;;;;;;4.82;3.80;;;10.90;99.90;;;;;;7354535;32;20381;-58
2023/10/24 19:31:42;;;;;;;5.00;3.45;;;10.90;99.90;;;;;;7349639;32;20111;-57
2023/10/24 19:35:45;;;;;;;5.65;3.67;;;10.90;99.90;;;;;;7339049;32;20115;-58
2023/10/24 19:39:49;;;;;;;6.03;3.80;;;10.90;99.90;;;;;;7353242;32;20232;-58
2023/10/24 19:43:51;;;;;;;4.90;3.28;;;10.90;99.90;;;;;;7356326;32;20164;-57
2023/10/24 19:47:59;;;;;;;7.43;3.83;;;10.80;99.90;;;;;;7351519;32;20233;-57
2023/10/24 19:52:02;;;;;;;5.85;3.95;;;10.70;99.90;;;;;;7351761;32;20277;-57
2023/10/24 19:56:06;;;;;;;5.22;4.00;;;10.60;99.90;;;;;;7354325;32;20141;-57
2023/10/24 20:00:09;;;;;;;4.55;3.42;;;10.60;99.90;;;;;;7343748;32;20321;-58
2023/10/24 20:04:13;;;;;;;7.18;3.90;;;10.60;99.90;;;;;;7349637;32;20111;-57
2023/10/24 20:08:17;;;;;;;5.18;3.62;;;10.60;99.90;;;;;;7346255;32;20164;-57
2023/10/24 20:12:19;;;;;;;5.80;3.78;;;10.60;99.90;;;;;;7340151;32;20202;-58
2023/10/24 20:16:43;;;;;;;8.52;4.30;;;10.60;99.90;;;;;;7345633;32;20178;-58
2023/10/24 20:20:45;;;;;;;6.70;4.18;;;10.60;99.90;;;;;;7344127;32;20138;-56
2023/10/24 20:24:50;;;;;;;6.03;3.85;;;10.50;99.90;;;;;;7341880;32;20208;-57
2023/10/24 20:28:55;;;;;;;6.43;4.53;;;10.60;99.90;;;;;;7333801;32;20127;-56
2023/10/24 20:32:57;;;;;;;6.50;4.03;;;10.60;99.90;;;;;;7347643;32;20115;-57
2023/10/24 20:36:58;;;;;;;6.70;3.10;;;10.60;99.90;;;;;;7353142;32;20112;-56
2023/10/24 20:41:00;;;;;;;6.05;3.33;;;10.60;99.90;;;;;;7345030;32;20171;-58
2023/10/24 20:45:02;;;;;;;4.72;2.78;;;10.50;99.90;;;;;;7344326;32;20114;-57
2023/10/24 20:49:04;;;;;;;6.70;2.85;;;10.40;99.90;;;;;;7342825;32;20138;-56
2023/10/24 20:53:06;;;;;;;4.78;2.70;;;10.30;99.90;;;;;;7340816;32;20600;-57
2023/10/24 20:57:08;;;;;;;4.43;2.65;;;10.20;99.90;;;;;;7344073;32;20605;-57
2023/10/24 21:01:14;;;;;;;4.78;2.50;;;10.10;99.90;;;;;;7341757;32;20119;-58
2023/10/24 21:05:15;;;;;;;4.18;2.60;;;10.00;99.90;;;;;;7338536;32;20118;-58
2023/10/24 21:09:17;;;;;;;8.05;2.75;;;10.00;99.90;;;;;;7347168;32;20126;-57